Time,TemperatureF,DewpointF,PressureIn,WindDirection,WindDirectionDegrees,WindSpeedMPH,WindSpeedGustMPH,Humidity,HourlyPrecipIn,Conditions,Clouds,dailyrainin,SolarRadiationWatts/m^2,SoftwareType,DateUTC
2013-08-23 00:02:00,68.0,45.0,-100.00,WSW,240,1.0,4.0,43,0.00,,,0.00,0.000000,,2013-08-23 06:02:00,
2013-08-23 00:12:00,68.0,45.0,-100.00,WSW,240,1.0,4.0,43,0.00,,,0.00,0.000000,,2013-08-23 06:12:00,
2013-08-23 00:42:00,67.0,51.0,-100.00,WSW,238,2.0,17.0,56,0.00,,,0.00,0.000000,,2013-08-23 06:42:00,
2013-08-23 00:52:00,67.0,51.0,-100.00,WSW,238,2.0,17.0,56,0.00,,,0.00,0.000000,,2013-08-23 06:52:00,
2013-08-23 01:01:00,67.0,51.0,-100.00,WSW,238,2.0,17.0,56,0.00,,,0.00,0.000000,,2013-08-23 07:01:00,
2013-08-23 01:11:00,67.0,51.0,-100.00,WSW,238,2.0,17.0,56,0.00,,,0.00,0.000000,,2013-08-23 07:11:00,
2013-08-23 01:42:00,62.0,50.0,-100.00,WSW,255,2.0,4.0,64,0.00,,,0.00,0.000000,,2013-08-23 07:42:00,
2013-08-23 01:52:00,62.0,50.0,-100.00,WSW,255,2.0,4.0,64,0.00,,,0.00,0.000000,,2013-08-23 07:52:00,
2013-08-23 02:02:00,62.0,50.0,-100.00,WSW,255,2.0,4.0,64,0.00,,,0.00,0.000000,,2013-08-23 08:02:00,
2013-08-23 02:12:00,62.0,50.0,-100.00,WSW,255,2.0,4.0,64,0.00,,,0.00,0.000000,,2013-08-23 08:12:00,
2013-08-23 02:42:00,61.0,51.0,-100.00,WNW,285,3.0,7.0,69,0.00,,,0.00,0.000000,,2013-08-23 08:42:00,
2013-08-23 02:52:00,61.0,51.0,-100.00,WNW,285,3.0,7.0,69,0.00,,,0.00,0.000000,,2013-08-23 08:52:00,
2013-08-23 03:01:00,61.0,51.0,-100.00,WNW,285,3.0,7.0,69,0.00,,,0.00,0.000000,,2013-08-23 09:01:00,
2013-08-23 03:11:00,61.0,51.0,-100.00,WNW,285,3.0,7.0,69,0.00,,,0.00,0.000000,,2013-08-23 09:11:00,
2013-08-23 03:43:00,58.0,49.0,-100.00,NW,325,2.0,7.0,71,0.00,,,0.00,0.000000,,2013-08-23 09:43:00,
2013-08-23 03:53:00,58.0,49.0,-100.00,NW,325,2.0,7.0,71,0.00,,,0.00,0.000000,,2013-08-23 09:53:00,
2013-08-23 04:03:00,58.0,49.0,-100.00,NW,325,2.0,7.0,71,0.00,,,0.00,0.000000,,2013-08-23 10:03:00,
2013-08-23 04:13:00,58.0,49.0,-100.00,NW,325,2.0,7.0,71,0.00,,,0.00,0.000000,,2013-08-23 10:13:00,
2013-08-23 04:42:00,56.0,48.0,-100.00,SSW,213,1.0,5.0,74,0.00,,,0.00,0.000000,,2013-08-23 10:42:00,
2013-08-23 04:53:00,56.0,48.0,-100.00,SSW,213,1.0,5.0,74,0.00,,,0.00,0.000000,,2013-08-23 10:53:00,
2013-08-23 05:02:00,56.0,48.0,-100.00,SSW,213,1.0,5.0,74,0.00,,,0.00,0.000000,,2013-08-23 11:02:00,
2013-08-23 05:11:00,56.0,48.0,-100.00,SSW,213,1.0,5.0,74,0.00,,,0.00,0.000000,,2013-08-23 11:11:00,
2013-08-23 05:42:00,55.0,48.0,-100.00,West,264,2.0,5.0,76,0.00,,,0.00,0.000000,,2013-08-23 11:42:00,
2013-08-23 05:53:00,55.0,48.0,-100.00,West,264,2.0,5.0,76,0.00,,,0.00,0.000000,,2013-08-23 11:53:00,
2013-08-23 06:01:00,55.0,48.0,-100.00,West,264,2.0,5.0,76,0.00,,,0.00,0.000000,,2013-08-23 12:01:00,
2013-08-23 06:11:00,55.0,48.0,-100.00,West,264,2.0,5.0,76,0.00,,,0.00,0.000000,,2013-08-23 12:11:00,
2013-08-23 06:42:00,55.0,47.0,-100.00,West,279,3.0,5.0,75,0.00,,,0.00,0.000000,,2013-08-23 12:42:00,
2013-08-23 06:52:00,55.0,47.0,-100.00,West,279,3.0,5.0,75,0.00,,,0.00,0.000000,,2013-08-23 12:52:00,
2013-08-23 07:02:00,55.0,47.0,-100.00,West,279,3.0,5.0,75,0.00,,,0.00,0.000000,,2013-08-23 13:02:00,
2013-08-23 07:11:00,55.0,47.0,-100.00,West,279,3.0,5.0,75,0.00,,,0.00,0.000000,,2013-08-23 13:11:00,
2013-08-23 07:42:00,55.0,49.0,-100.00,South,172,3.0,7.0,79,0.00,,,0.00,0.000000,,2013-08-23 13:42:00,
2013-08-23 07:52:00,55.0,49.0,-100.00,South,172,3.0,7.0,79,0.00,,,0.00,0.000000,,2013-08-23 13:52:00,
2013-08-23 08:02:00,55.0,49.0,-100.00,South,172,3.0,7.0,79,0.00,,,0.00,0.000000,,2013-08-23 14:02:00,
2013-08-23 08:11:00,55.0,49.0,-100.00,South,172,3.0,7.0,79,0.00,,,0.00,0.000000,,2013-08-23 14:11:00,
2013-08-23 08:42:00,55.0,48.0,-100.00,WNW,282,3.0,5.0,77,0.00,,,0.00,8.000000,,2013-08-23 14:42:00,
2013-08-23 08:52:00,55.0,48.0,-100.00,WNW,282,3.0,5.0,77,0.00,,,0.00,8.000000,,2013-08-23 14:52:00,
2013-08-23 09:01:00,55.0,48.0,-100.00,WNW,282,3.0,5.0,77,0.00,,,0.00,8.000000,,2013-08-23 15:01:00,
2013-08-23 09:11:00,55.0,48.0,-100.00,WNW,282,3.0,5.0,77,0.00,,,0.00,8.000000,,2013-08-23 15:11:00,
2013-08-23 09:44:00,56.0,50.0,-100.00,ENE,59,4.0,9.0,80,0.00,,,0.00,11.000000,,2013-08-23 15:44:00,
2013-08-23 09:54:00,56.0,50.0,-100.00,ENE,59,4.0,9.0,80,0.00,,,0.00,11.000000,,2013-08-23 15:54:00,
2013-08-23 10:05:00,56.0,50.0,-100.00,ENE,59,4.0,9.0,80,0.00,,,0.00,11.000000,,2013-08-23 16:05:00,
2013-08-23 10:13:00,56.0,50.0,-100.00,ENE,59,4.0,9.0,80,0.00,,,0.00,11.000000,,2013-08-23 16:13:00,
2013-08-23 10:42:00,59.0,51.0,-100.00,North,355,2.0,7.0,75,0.00,,,0.00,63.000000,,2013-08-23 16:42:00,
2013-08-23 10:53:00,59.0,51.0,-100.00,North,355,2.0,7.0,75,0.00,,,0.00,63.000000,,2013-08-23 16:53:00,
2013-08-23 11:03:00,59.0,51.0,-100.00,North,355,2.0,7.0,75,0.00,,,0.00,63.000000,,2013-08-23 17:03:00,
2013-08-23 11:12:00,59.0,51.0,-100.00,North,355,2.0,7.0,75,0.00,,,0.00,63.000000,,2013-08-23 17:12:00,
2013-08-23 11:43:00,61.0,50.0,-100.00,WSW,244,3.0,8.0,68,0.00,,,0.00,92.000000,,2013-08-23 17:43:00,
2013-08-23 11:53:00,61.0,50.0,-100.00,WSW,244,3.0,8.0,68,0.00,,,0.00,92.000000,,2013-08-23 17:53:00,
2013-08-23 12:02:00,61.0,50.0,-100.00,WSW,244,3.0,8.0,68,0.00,,,0.00,92.000000,,2013-08-23 18:02:00,
2013-08-23 12:12:00,61.0,50.0,-100.00,WSW,244,3.0,8.0,68,0.00,,,0.00,92.000000,,2013-08-23 18:12:00,
2013-08-23 12:42:00,71.0,51.0,-100.00,SSE,163,3.0,6.0,50,0.00,,,0.00,405.000000,,2013-08-23 18:42:00,
2013-08-23 12:52:00,71.0,51.0,-100.00,SSE,163,3.0,6.0,50,0.00,,,0.00,405.000000,,2013-08-23 18:52:00,
2013-08-23 13:01:00,71.0,51.0,-100.00,SSE,163,3.0,6.0,50,0.00,,,0.00,405.000000,,2013-08-23 19:01:00,
2013-08-23 13:11:00,71.0,51.0,-100.00,SSE,163,3.0,6.0,50,0.00,,,0.00,405.000000,,2013-08-23 19:11:00,
2013-08-23 13:42:00,79.0,47.0,-100.00,SE,142,5.0,7.0,32,0.00,,,-99.99,733.000000,,2013-08-23 19:42:00,
2013-08-23 13:52:00,79.0,47.0,-100.00,SE,142,5.0,7.0,32,0.00,,,-99.99,733.000000,,2013-08-23 19:52:00,
2013-08-23 14:02:00,79.0,47.0,-100.00,SE,142,5.0,7.0,32,0.00,,,-99.99,733.000000,,2013-08-23 20:02:00,
2013-08-23 14:11:00,79.0,47.0,-100.00,SE,142,5.0,7.0,32,0.00,,,-99.99,733.000000,,2013-08-23 20:11:00,
2013-08-23 14:42:00,84.0,45.0,-100.00,SSE,149,6.0,13.0,26,0.00,,,0.00,799.000000,,2013-08-23 20:42:00,
2013-08-23 14:52:00,84.0,45.0,-100.00,SSE,149,6.0,13.0,26,0.00,,,0.00,799.000000,,2013-08-23 20:52:00,
2013-08-23 15:02:00,84.0,45.0,-100.00,SSE,149,6.0,13.0,26,0.00,,,0.00,799.000000,,2013-08-23 21:02:00,
2013-08-23 15:11:00,84.0,45.0,-100.00,SSE,149,6.0,13.0,26,0.00,,,0.00,799.000000,,2013-08-23 21:11:00,
2013-08-23 15:44:00,83.0,44.0,-100.00,South,175,6.0,15.0,25,0.00,,,0.00,637.000000,,2013-08-23 21:44:00,
2013-08-23 15:54:00,83.0,44.0,-100.00,South,175,6.0,15.0,25,0.00,,,0.00,637.000000,,2013-08-23 21:54:00,
2013-08-23 16:04:00,83.0,44.0,-100.00,South,175,6.0,15.0,25,0.00,,,0.00,637.000000,,2013-08-23 22:04:00,
2013-08-23 16:13:00,83.0,44.0,-100.00,South,175,6.0,15.0,25,0.00,,,0.00,637.000000,,2013-08-23 22:13:00,
2013-08-23 16:43:00,87.0,41.0,-100.00,SW,221,6.0,16.0,20,0.00,,,0.00,669.000000,,2013-08-23 22:43:00,
2013-08-23 16:53:00,87.0,41.0,-100.00,SW,221,6.0,16.0,20,0.00,,,0.00,669.000000,,2013-08-23 22:53:00,
2013-08-23 17:03:00,87.0,41.0,-100.00,SW,221,6.0,16.0,20,0.00,,,0.00,669.000000,,2013-08-23 23:03:00,
2013-08-23 17:12:00,87.0,41.0,-100.00,SW,221,6.0,16.0,20,0.00,,,0.00,669.000000,,2013-08-23 23:12:00,
2013-08-23 17:43:00,85.0,42.0,-100.00,SSW,202,7.0,15.0,22,0.00,,,0.00,535.000000,,2013-08-23 23:43:00,
2013-08-23 17:54:00,85.0,42.0,-100.00,SSW,202,7.0,15.0,22,0.00,,,0.00,535.000000,,2013-08-23 23:54:00,
2013-08-23 18:02:00,85.0,42.0,-100.00,SSW,202,7.0,15.0,22,0.00,,,0.00,535.000000,,2013-08-24 00:02:00,
2013-08-23 18:11:00,85.0,42.0,-100.00,SSW,202,7.0,15.0,22,0.00,,,0.00,535.000000,,2013-08-24 00:11:00,
2013-08-23 18:43:00,87.0,40.0,-100.00,SW,231,5.0,11.0,19,0.00,,,0.00,456.000000,,2013-08-24 00:43:00,
2013-08-23 18:53:00,87.0,40.0,-100.00,SW,231,5.0,11.0,19,0.00,,,0.00,456.000000,,2013-08-24 00:53:00,
2013-08-23 19:02:00,87.0,40.0,-100.00,SW,231,5.0,11.0,19,0.00,,,0.00,456.000000,,2013-08-24 01:02:00,
2013-08-23 19:11:00,87.0,40.0,-100.00,SW,231,5.0,11.0,19,0.00,,,0.00,456.000000,,2013-08-24 01:11:00,
2013-08-23 19:42:00,85.0,41.0,-100.00,East,89,3.0,13.0,21,0.00,,,0.00,423.000000,,2013-08-24 01:42:00,
2013-08-23 19:53:00,85.0,41.0,-100.00,East,89,3.0,13.0,21,0.00,,,0.00,423.000000,,2013-08-24 01:53:00,
2013-08-23 20:02:00,85.0,41.0,-100.00,East,89,3.0,13.0,21,0.00,,,0.00,423.000000,,2013-08-24 02:02:00,
2013-08-23 20:11:00,85.0,41.0,-100.00,East,89,3.0,13.0,21,0.00,,,0.00,423.000000,,2013-08-24 02:11:00,
2013-08-23 20:42:00,82.0,38.0,-100.00,NW,306,2.0,12.0,21,0.00,,,0.00,183.000000,,2013-08-24 02:42:00,
2013-08-23 20:52:00,82.0,38.0,-100.00,NW,306,2.0,12.0,21,0.00,,,0.00,183.000000,,2013-08-24 02:52:00,
2013-08-23 21:02:00,82.0,38.0,-100.00,NW,306,2.0,12.0,21,0.00,,,0.00,183.000000,,2013-08-24 03:02:00,
2013-08-23 21:11:00,82.0,38.0,-100.00,NW,306,2.0,12.0,21,0.00,,,0.00,183.000000,,2013-08-24 03:11:00,
2013-08-23 21:14:00,75.0,41.0,-100.00,NW,321,2.0,6.0,30,0.00,,,0.00,43.000000,,2013-08-24 03:14:00,
2013-08-23 21:44:00,75.0,41.0,-100.00,NW,321,2.0,6.0,30,0.00,,,0.00,43.000000,,2013-08-24 03:44:00,
2013-08-23 21:55:00,75.0,41.0,-100.00,NW,321,2.0,6.0,30,0.00,,,0.00,43.000000,,2013-08-24 03:55:00,
2013-08-23 22:04:00,75.0,41.0,-100.00,NW,321,2.0,6.0,30,0.00,,,0.00,43.000000,,2013-08-24 04:04:00,
2013-08-23 22:44:00,68.0,40.0,-100.00,West,266,2.0,4.0,36,0.00,,,0.00,5.000000,,2013-08-24 04:44:00,
2013-08-23 22:53:00,68.0,40.0,-100.00,West,266,2.0,4.0,36,0.00,,,0.00,5.000000,,2013-08-24 04:53:00,
2013-08-23 23:03:00,68.0,40.0,-100.00,West,266,2.0,4.0,36,0.00,,,0.00,5.000000,,2013-08-24 05:03:00,
2013-08-23 23:12:00,68.0,40.0,-100.00,West,266,2.0,4.0,36,0.00,,,0.00,5.000000,,2013-08-24 05:12:00,
2013-08-23 23:43:00,64.0,43.0,-100.00,WNW,302,1.0,3.0,47,0.00,,,0.00,0.000000,,2013-08-24 05:43:00,
2013-08-23 23:53:00,64.0,43.0,-100.00,WNW,302,1.0,3.0,47,0.00,,,0.00,0.000000,,2013-08-24 05:53:00,